sensor_id;sensor_type;location;lat;lon;timestamp;pressure;altitude;pressure_sealevel;temperature;humidity
13476;BME280;6810;63.824;20.288;2023-05-29T00:00:46;101355.13;;;9.03;56.08
13476;BME280;6810;63.824;20.288;2023-05-29T00:03:33;101355.31;;;8.99;55.79
13476;BME280;6810;63.824;20.288;2023-05-29T00:06:20;101370.41;;;8.98;55.58
13476;BME280;6810;63.824;20.288;2023-05-29T00:09:08;101362.50;;;8.97;55.58
13476;BME280;6810;63.824;20.288;2023-05-29T00:11:55;101361.81;;;8.92;55.67
13476;BME280;6810;63.824;20.288;2023-05-29T00:14:42;101367.25;;;8.89;55.51
13476;BME280;6810;63.824;20.288;2023-05-29T00:17:30;101369.16;;;8.85;56.06
13476;BME280;6810;63.824;20.288;2023-05-29T00:20:20;101363.13;;;8.82;55.81
13476;BME280;6810;63.824;20.288;2023-05-29T00:23:07;101364.16;;;8.77;56.12
13476;BME280;6810;63.824;20.288;2023-05-29T00:25:54;101363.44;;;8.74;56.26
13476;BME280;6810;63.824;20.288;2023-05-29T00:28:42;101362.00;;;8.65;55.92
13476;BME280;6810;63.824;20.288;2023-05-29T00:31:30;101369.09;;;8.65;55.94
13476;BME280;6810;63.824;20.288;2023-05-29T00:34:17;101365.72;;;8.61;56.19
13476;BME280;6810;63.824;20.288;2023-05-29T00:37:04;101371.09;;;8.60;56.50
13476;BME280;6810;63.824;20.288;2023-05-29T00:39:51;101374.72;;;8.57;56.08
13476;BME280;6810;63.824;20.288;2023-05-29T00:42:38;101375.84;;;8.52;56.37
13476;BME280;6810;63.824;20.288;2023-05-29T00:45:26;101371.34;;;8.54;56.32
13476;BME280;6810;63.824;20.288;2023-05-29T00:48:13;101390.84;;;8.53;56.21
13476;BME280;6810;63.824;20.288;2023-05-29T00:51:01;101381.31;;;8.47;56.04
13476;BME280;6810;63.824;20.288;2023-05-29T00:53:50;101358.97;;;8.30;56.67
13476;BME280;6810;63.824;20.288;2023-05-29T00:56:39;101376.44;;;8.37;56.17
13476;BME280;6810;63.824;20.288;2023-05-29T00:59:26;101391.63;;;8.33;56.59
13476;BME280;6810;63.824;20.288;2023-05-29T01:02:16;101363.94;;;8.16;57.17
13476;BME280;6810;63.824;20.288;2023-05-29T01:05:03;101401.47;;;8.30;56.81
13476;BME280;6810;63.824;20.288;2023-05-29T01:07:51;101406.06;;;8.26;57.09
13476;BME280;6810;63.824;20.288;2023-05-29T01:10:38;101393.16;;;8.16;56.91
13476;BME280;6810;63.824;20.288;2023-05-29T01:13:29;101402.66;;;8.23;56.66
13476;BME280;6810;63.824;20.288;2023-05-29T01:16:44;101394.69;;;8.23;56.90
13476;BME280;6810;63.824;20.288;2023-05-29T01:19:40;101401.78;;;8.22;56.76
13476;BME280;6810;63.824;20.288;2023-05-29T01:23:07;101404.44;;;8.21;56.67
13476;BME280;6810;63.824;20.288;2023-05-29T01:28:48;101411.03;;;8.11;57.14
13476;BME280;6810;63.824;20.288;2023-05-29T01:31:39;101397.13;;;8.04;56.72
13476;BME280;6810;63.824;20.288;2023-05-29T01:34:26;101401.78;;;7.98;56.88
13476;BME280;6810;63.824;20.288;2023-05-29T01:37:14;101423.56;;;8.07;56.75
13476;BME280;6810;63.824;20.288;2023-05-29T01:40:01;101419.22;;;8.05;57.11
13476;BME280;6810;63.824;20.288;2023-05-29T01:42:51;101425.53;;;8.02;56.91
13476;BME280;6810;63.824;20.288;2023-05-29T01:45:39;101416.91;;;7.96;56.93
13476;BME280;6810;63.824;20.288;2023-05-29T01:48:27;101415.09;;;7.96;57.06
13476;BME280;6810;63.824;20.288;2023-05-29T01:51:14;101398.94;;;7.79;56.71
13476;BME280;6810;63.824;20.288;2023-05-29T01:54:02;101418.88;;;7.91;56.93
13476;BME280;6810;63.824;20.288;2023-05-29T01:56:49;101399.91;;;7.77;57.24
13476;BME280;6810;63.824;20.288;2023-05-29T01:59:38;101429.66;;;7.86;57.30
13476;BME280;6810;63.824;20.288;2023-05-29T02:02:26;101427.06;;;7.85;57.46
13476;BME280;6810;63.824;20.288;2023-05-29T02:05:13;101424.41;;;7.85;57.67
13476;BME280;6810;63.824;20.288;2023-05-29T02:08:00;101434.13;;;7.84;57.45
13476;BME280;6810;63.824;20.288;2023-05-29T02:10:48;101435.94;;;7.84;57.49
13476;BME280;6810;63.824;20.288;2023-05-29T02:13:35;101434.19;;;7.83;57.54
13476;BME280;6810;63.824;20.288;2023-05-29T02:16:22;101439.44;;;7.84;57.92
13476;BME280;6810;63.824;20.288;2023-05-29T02:19:10;101420.47;;;7.72;57.56
13476;BME280;6810;63.824;20.288;2023-05-29T02:22:19;101428.16;;;7.79;57.50
13476;BME280;6810;63.824;20.288;2023-05-29T02:25:06;101443.13;;;7.80;57.74
13476;BME280;6810;63.824;20.288;2023-05-29T02:27:53;101442.25;;;7.80;57.77
13476;BME280;6810;63.824;20.288;2023-05-29T02:30:40;101444.00;;;7.81;57.67
13476;BME280;6810;63.824;20.288;2023-05-29T02:33:28;101440.38;;;7.83;57.65
13476;BME280;6810;63.824;20.288;2023-05-29T02:36:15;101443.03;;;7.83;57.65
13476;BME280;6810;63.824;20.288;2023-05-29T02:39:03;101442.19;;;7.81;57.76
13476;BME280;6810;63.824;20.288;2023-05-29T02:41:50;101429.94;;;7.79;57.80
13476;BME280;6810;63.824;20.288;2023-05-29T02:44:37;101437.13;;;7.75;57.83
13476;BME280;6810;63.824;20.288;2023-05-29T02:47:24;101416.31;;;7.63;57.84
13476;BME280;6810;63.824;20.288;2023-05-29T02:50:12;101438.81;;;7.78;58.11
13476;BME280;6810;63.824;20.288;2023-05-29T02:52:59;101431.81;;;7.75;57.62
13476;BME280;6810;63.824;20.288;2023-05-29T02:55:48;101382.50;;;7.45;57.97
13476;BME280;6810;63.824;20.288;2023-05-29T02:58:35;101439.72;;;7.77;57.68
13476;BME280;6810;63.824;20.288;2023-05-29T03:01:23;101444.97;;;7.78;57.96
13476;BME280;6810;63.824;20.288;2023-05-29T03:04:10;101452.13;;;7.76;57.67
13476;BME280;6810;63.824;20.288;2023-05-29T03:06:57;101446.72;;;7.79;57.65
13476;BME280;6810;63.824;20.288;2023-05-29T03:09:44;101444.00;;;7.81;57.42
13476;BME280;6810;63.824;20.288;2023-05-29T03:12:31;101435.41;;;7.74;57.36
13476;BME280;6810;63.824;20.288;2023-05-29T03:15:19;101453.69;;;7.82;57.60
13476;BME280;6810;63.824;20.288;2023-05-29T03:18:06;101441.25;;;7.84;57.43
13476;BME280;6810;63.824;20.288;2023-05-29T03:20:53;101434.13;;;7.84;57.45
13476;BME280;6810;63.824;20.288;2023-05-29T03:23:41;101445.63;;;7.85;57.55
13476;BME280;6810;63.824;20.288;2023-05-29T03:26:28;101445.56;;;7.86;57.62
13476;BME280;6810;63.824;20.288;2023-05-29T03:29:17;101444.59;;;7.89;57.54
13476;BME280;6810;63.824;20.288;2023-05-29T03:32:05;101447.25;;;7.89;57.29
13476;BME280;6810;63.824;20.288;2023-05-29T03:34:52;101456.03;;;7.91;57.60
13476;BME280;6810;63.824;20.288;2023-05-29T03:37:42;101453.38;;;7.91;57.05
13476;BME280;6810;63.824;20.288;2023-05-29T03:40:29;101447.06;;;7.93;57.18
13476;BME280;6810;63.824;20.288;2023-05-29T03:43:16;101447.25;;;7.89;57.48
13476;BME280;6810;63.824;20.288;2023-05-29T03:46:04;101455.84;;;7.95;57.40
13476;BME280;6810;63.824;20.288;2023-05-29T03:48:52;101418.38;;;7.80;57.32
13476;BME280;6810;63.824;20.288;2023-05-29T03:51:41;101441.53;;;7.99;57.08
13476;BME280;6810;63.824;20.288;2023-05-29T03:54:28;101446.78;;;8.02;57.18
13476;BME280;6810;63.824;20.288;2023-05-29T03:57:16;101458.22;;;8.03;56.87
13476;BME280;6810;63.824;20.288;2023-05-29T04:00:04;101440.41;;;8.06;57.21
13476;BME280;6810;63.824;20.288;2023-05-29T04:02:52;101434.22;;;8.06;57.02
13476;BME280;6810;63.824;20.288;2023-05-29T04:05:39;101452.59;;;8.12;57.06
13476;BME280;6810;63.824;20.288;2023-05-29T04:08:27;101442.09;;;8.09;56.71
13476;BME280;6810;63.824;20.288;2023-05-29T04:11:14;101451.56;;;8.16;56.64
13476;BME280;6810;63.824;20.288;2023-05-29T04:14:01;101419.34;;;8.02;56.95
13476;BME280;6810;63.824;20.288;2023-05-29T04:16:49;101456.72;;;8.20;56.41
13476;BME280;6810;63.824;20.288;2023-05-29T04:19:36;101453.88;;;8.26;56.57
13476;BME280;6810;63.824;20.288;2023-05-29T04:22:23;101458.19;;;8.29;56.69
13476;BME280;6810;63.824;20.288;2023-05-29T04:25:10;101458.06;;;8.32;56.02
13476;BME280;6810;63.824;20.288;2023-05-29T04:27:57;101456.19;;;8.35;56.38
13476;BME280;6810;63.824;20.288;2023-05-29T04:30:45;101461.44;;;8.37;56.32
13476;BME280;6810;63.824;20.288;2023-05-29T04:33:33;101468.22;;;8.44;56.59
13476;BME280;6810;63.824;20.288;2023-05-29T04:36:24;101457.56;;;8.45;56.09
13476;BME280;6810;63.824;20.288;2023-05-29T04:39:12;101464.50;;;8.49;55.89
13476;BME280;6810;63.824;20.288;2023-05-29T04:42:00;101470.53;;;8.53;55.76
13476;BME280;6810;63.824;20.288;2023-05-29T04:44:48;101455.59;;;8.50;55.53
13476;BME280;6810;63.824;20.288;2023-05-29T04:47:36;101466.00;;;8.56;55.54
13476;BME280;6810;63.824;20.288;2023-05-29T04:50:23;101473.78;;;8.61;55.34
13476;BME280;6810;63.824;20.288;2023-05-29T04:53:10;101472.69;;;8.66;55.63
13476;BME280;6810;63.824;20.288;2023-05-29T04:55:58;101480.50;;;8.71;55.63
13476;BME280;6810;63.824;20.288;2023-05-29T04:58:46;101472.34;;;8.75;55.43
13476;BME280;6810;63.824;20.288;2023-05-29T05:01:34;101466.03;;;8.78;55.08
13476;BME280;6810;63.824;20.288;2023-05-29T05:04:21;101468.50;;;8.82;55.19
13476;BME280;6810;63.824;20.288;2023-05-29T05:07:10;101463.00;;;8.87;55.16
13476;BME280;6810;63.824;20.288;2023-05-29T05:09:57;101469.13;;;8.89;55.04
13476;BME280;6810;63.824;20.288;2023-05-29T05:12:45;101476.00;;;8.95;54.82
13476;BME280;6810;63.824;20.288;2023-05-29T05:15:32;101470.63;;;8.96;54.43
13476;BME280;6810;63.824;20.288;2023-05-29T05:18:19;101464.16;;;9.03;54.70
13476;BME280;6810;63.824;20.288;2023-05-29T05:21:07;101459.50;;;9.08;54.44
13476;BME280;6810;63.824;20.288;2023-05-29T05:23:56;101471.75;;;9.12;54.26
13476;BME280;6810;63.824;20.288;2023-05-29T05:26:43;101462.66;;;9.18;54.43
13476;BME280;6810;63.824;20.288;2023-05-29T05:29:30;101466.91;;;9.22;53.75
13476;BME280;6810;63.824;20.288;2023-05-29T05:32:18;101469.38;;;9.26;53.93
13476;BME280;6810;63.824;20.288;2023-05-29T05:35:06;101470.00;;;9.33;54.24
13476;BME280;6810;63.824;20.288;2023-05-29T05:37:54;101476.00;;;9.38;54.04
13476;BME280;6810;63.824;20.288;2023-05-29T05:40:41;101482.91;;;9.42;53.34
13476;BME280;6810;63.824;20.288;2023-05-29T05:43:31;101464.22;;;9.43;54.04
13476;BME280;6810;63.824;20.288;2023-05-29T05:46:38;101481.56;;;9.53;53.30
13476;BME280;6810;63.824;20.288;2023-05-29T05:49:26;101481.44;;;9.56;52.91
13476;BME280;6810;63.824;20.288;2023-05-29T05:52:13;101471.50;;;9.60;52.76
13476;BME280;6810;63.824;20.288;2023-05-29T05:55:01;101493.47;;;9.65;52.87
13476;BME280;6810;63.824;20.288;2023-05-29T05:57:48;101488.91;;;9.68;52.10
13476;BME280;6810;63.824;20.288;2023-05-29T06:00:35;101481.66;;;9.72;51.79
13476;BME280;6810;63.824;20.288;2023-05-29T06:03:23;101488.44;;;9.79;51.78
13476;BME280;6810;63.824;20.288;2023-05-29T06:06:10;101480.66;;;9.74;51.44
13476;BME280;6810;63.824;20.288;2023-05-29T06:08:58;101489.69;;;9.90;51.27
13476;BME280;6810;63.824;20.288;2023-05-29T06:11:48;101475.59;;;9.88;51.09
13476;BME280;6810;63.824;20.288;2023-05-29T06:14:42;101475.47;;;9.91;50.89
13476;BME280;6810;63.824;20.288;2023-05-29T06:17:29;101491.94;;;10.01;51.45
13476;BME280;6810;63.824;20.288;2023-05-29T06:20:17;101489.81;;;10.09;50.64
13476;BME280;6810;63.824;20.288;2023-05-29T06:23:04;101491.34;;;10.14;51.02
13476;BME280;6810;63.824;20.288;2023-05-29T06:25:51;101491.16;;;10.19;50.38
13476;BME280;6810;63.824;20.288;2023-05-29T06:28:39;101486.59;;;10.21;49.99
13476;BME280;6810;63.824;20.288;2023-05-29T06:31:26;101499.53;;;10.30;50.68
13476;BME280;6810;63.824;20.288;2023-05-29T06:34:13;101484.31;;;10.32;50.47
13476;BME280;6810;63.824;20.288;2023-05-29T06:37:01;101495.66;;;10.37;49.78
13476;BME280;6810;63.824;20.288;2023-05-29T06:39:48;101497.16;;;10.42;50.38
13476;BME280;6810;63.824;20.288;2023-05-29T06:42:35;101490.84;;;10.45;49.19
13476;BME280;6810;63.824;20.288;2023-05-29T06:45:36;101488.03;;;10.48;49.58
13476;BME280;6810;63.824;20.288;2023-05-29T06:48:23;101497.53;;;10.53;49.96
13476;BME280;6810;63.824;20.288;2023-05-29T06:51:11;101493.75;;;10.59;49.08
13476;BME280;6810;63.824;20.288;2023-05-29T06:54:37;101491.66;;;10.66;49.95
13476;BME280;6810;63.824;20.288;2023-05-29T06:57:24;101491.44;;;10.70;49.48
13476;BME280;6810;63.824;20.288;2023-05-29T07:00:12;101484.97;;;10.76;49.87
13476;BME280;6810;63.824;20.288;2023-05-29T07:03:20;101493.53;;;10.82;49.02
13476;BME280;6810;63.824;20.288;2023-05-29T07:06:07;101497.72;;;10.88;48.65
13476;BME280;6810;63.824;20.288;2023-05-29T07:09:11;101493.97;;;10.92;48.35
13476;BME280;6810;63.824;20.288;2023-05-29T07:11:59;101497.28;;;10.97;48.44
13476;BME280;6810;63.824;20.288;2023-05-29T07:14:46;101491.81;;;11.00;48.48
13476;BME280;6810;63.824;20.288;2023-05-29T07:17:33;101478.63;;;10.97;48.45
13476;BME280;6810;63.824;20.288;2023-05-29T07:20:24;101493.09;;;11.10;48.57
13476;BME280;6810;63.824;20.288;2023-05-29T07:23:15;101477.06;;;11.10;47.72
13476;BME280;6810;63.824;20.288;2023-05-29T07:26:02;101483.84;;;11.17;47.80
13476;BME280;6810;63.824;20.288;2023-05-29T07:28:49;101486.31;;;11.21;47.67
13476;BME280;6810;63.824;20.288;2023-05-29T07:31:37;101498.47;;;11.27;47.35
13476;BME280;6810;63.824;20.288;2023-05-29T07:34:24;101490.31;;;11.30;46.75
13476;BME280;6810;63.824;20.288;2023-05-29T07:37:14;101486.81;;;11.29;46.93
13476;BME280;6810;63.824;20.288;2023-05-29T07:40:03;101489.16;;;11.35;47.80
13476;BME280;6810;63.824;20.288;2023-05-29T07:43:11;101493.34;;;11.41;46.84
13476;BME280;6810;63.824;20.288;2023-05-29T07:46:03;101475.66;;;11.38;46.83
13476;BME280;6810;63.824;20.288;2023-05-29T07:48:56;101481.31;;;11.49;47.33
13476;BME280;6810;63.824;20.288;2023-05-29T07:51:43;101473.06;;;11.54;45.99
13476;BME280;6810;63.824;20.288;2023-05-29T07:54:32;101477.34;;;11.58;45.79
13476;BME280;6810;63.824;20.288;2023-05-29T07:57:19;101486.91;;;11.62;45.49
13476;BME280;6810;63.824;20.288;2023-05-29T08:00:08;101478.63;;;11.68;46.05
13476;BME280;6810;63.824;20.288;2023-05-29T08:02:55;101468.75;;;11.70;44.90
13476;BME280;6810;63.824;20.288;2023-05-29T08:06:01;101477.25;;;11.78;45.91
13476;BME280;6810;63.824;20.288;2023-05-29T08:08:49;101469.22;;;11.78;45.41
13476;BME280;6810;63.824;20.288;2023-05-29T08:11:37;101478.56;;;11.86;44.30
13476;BME280;6810;63.824;20.288;2023-05-29T08:14:27;101468.59;;;11.90;44.73
13476;BME280;6810;63.824;20.288;2023-05-29T08:17:14;101465.75;;;11.93;45.11
13476;BME280;6810;63.824;20.288;2023-05-29T08:20:01;101453.19;;;11.95;44.21
13476;BME280;6810;63.824;20.288;2023-05-29T08:22:49;101446.72;;;11.99;44.22
13476;BME280;6810;63.824;20.288;2023-05-29T08:25:36;101414.84;;;11.79;44.72
13476;BME280;6810;63.824;20.288;2023-05-29T08:28:23;101450.56;;;12.10;44.89
13476;BME280;6810;63.824;20.288;2023-05-29T08:31:10;101437.09;;;12.12;45.72
13476;BME280;6810;63.824;20.288;2023-05-29T08:33:57;101447.25;;;12.23;45.38
13476;BME280;6810;63.824;20.288;2023-05-29T08:36:45;101443.63;;;12.23;44.51
13476;BME280;6810;63.824;20.288;2023-05-29T08:39:32;101437.94;;;12.30;43.61
13476;BME280;6810;63.824;20.288;2023-05-29T08:42:29;101446.59;;;12.35;44.09
13476;BME280;6810;63.824;20.288;2023-05-29T08:45:21;101444.44;;;12.41;43.86
13476;BME280;6810;63.824;20.288;2023-05-29T08:48:10;101438.66;;;12.49;43.70
13476;BME280;6810;63.824;20.288;2023-05-29T08:50:58;101434.72;;;12.56;43.49
13476;BME280;6810;63.824;20.288;2023-05-29T08:53:47;101430.94;;;12.60;43.69
13476;BME280;6810;63.824;20.288;2023-05-29T08:56:35;101409.88;;;12.54;42.87
13476;BME280;6810;63.824;20.288;2023-05-29T08:59:22;101432.34;;;12.67;43.42
13476;BME280;6810;63.824;20.288;2023-05-29T09:02:10;101416.94;;;12.70;42.97
13476;BME280;6810;63.824;20.288;2023-05-29T09:04:57;101419.28;;;12.76;43.04
13476;BME280;6810;63.824;20.288;2023-05-29T09:07:44;101434.06;;;12.83;42.68
13476;BME280;6810;63.824;20.288;2023-05-29T09:10:32;101432.31;;;12.82;43.03
13476;BME280;6810;63.824;20.288;2023-05-29T09:13:19;101433.53;;;12.92;43.37
13476;BME280;6810;63.824;20.288;2023-05-29T09:16:06;101427.22;;;12.93;42.69
13476;BME280;6810;63.824;20.288;2023-05-29T09:19:04;101430.47;;;13.00;41.85
13476;BME280;6810;63.824;20.288;2023-05-29T09:21:52;101428.56;;;13.02;42.23
13476;BME280;6810;63.824;20.288;2023-05-29T09:24:47;101434.22;;;13.11;41.56
13476;BME280;6810;63.824;20.288;2023-05-29T09:27:39;101419.84;;;13.14;42.41
13476;BME280;6810;63.824;20.288;2023-05-29T09:30:48;101431.63;;;13.25;42.28
13476;BME280;6810;63.824;20.288;2023-05-29T09:33:46;101410.63;;;13.33;41.50
13476;BME280;6810;63.824;20.288;2023-05-29T09:36:34;101418.50;;;13.36;40.76
13476;BME280;6810;63.824;20.288;2023-05-29T09:39:21;101415.44;;;13.42;40.39
13476;BME280;6810;63.824;20.288;2023-05-29T09:42:11;101414.16;;;13.49;40.50
13476;BME280;6810;63.824;20.288;2023-05-29T09:44:59;101399.88;;;13.49;40.85
13476;BME280;6810;63.824;20.288;2023-05-29T09:47:47;101397.63;;;13.57;41.00
13476;BME280;6810;63.824;20.288;2023-05-29T09:50:34;101423.59;;;13.70;41.32
13476;BME280;6810;63.824;20.288;2023-05-29T09:53:23;101417.50;;;13.82;40.69
13476;BME280;6810;63.824;20.288;2023-05-29T09:56:11;101405.44;;;13.89;40.23
13476;BME280;6810;63.824;20.288;2023-05-29T09:58:59;101407.53;;;13.98;39.98
13476;BME280;6810;63.824;20.288;2023-05-29T10:01:48;101397.03;;;14.10;40.08
13476;BME280;6810;63.824;20.288;2023-05-29T10:04:35;101412.44;;;14.20;39.89
13476;BME280;6810;63.824;20.288;2023-05-29T10:07:31;101409.13;;;14.31;39.70
13476;BME280;6810;63.824;20.288;2023-05-29T10:10:21;101365.06;;;14.21;39.13
13476;BME280;6810;63.824;20.288;2023-05-29T10:13:14;101380.59;;;14.30;38.87
13476;BME280;6810;63.824;20.288;2023-05-29T10:16:03;101381.06;;;14.36;38.39
13476;BME280;6810;63.824;20.288;2023-05-29T10:18:54;101388.03;;;14.53;38.19
13476;BME280;6810;63.824;20.288;2023-05-29T10:21:42;101392.16;;;14.58;38.10
13476;BME280;6810;63.824;20.288;2023-05-29T10:24:31;101376.25;;;14.55;37.63
13476;BME280;6810;63.824;20.288;2023-05-29T10:27:20;101388.88;;;14.67;37.92
13476;BME280;6810;63.824;20.288;2023-05-29T10:36:13;101382.44;;;14.84;37.55
13476;BME280;6810;63.824;20.288;2023-05-29T10:39:01;101376.66;;;14.90;37.22
13476;BME280;6810;63.824;20.288;2023-05-29T10:41:48;101370.13;;;14.94;37.11
13476;BME280;6810;63.824;20.288;2023-05-29T10:44:39;101351.69;;;15.02;36.98
13476;BME280;6810;63.824;20.288;2023-05-29T10:47:27;101371.38;;;15.15;36.59
13476;BME280;6810;63.824;20.288;2023-05-29T10:50:40;101365.19;;;15.27;37.07
13476;BME280;6810;63.824;20.288;2023-05-29T10:53:31;101359.66;;;15.42;36.13
13476;BME280;6810;63.824;20.288;2023-05-29T10:56:29;101330.78;;;15.46;36.04
13476;BME280;6810;63.824;20.288;2023-05-29T10:59:17;101348.09;;;15.67;35.15
13476;BME280;6810;63.824;20.288;2023-05-29T11:02:04;101352.00;;;15.76;34.89
13476;BME280;6810;63.824;20.288;2023-05-29T11:07:59;101347.25;;;15.92;34.75
13476;BME280;6810;63.824;20.288;2023-05-29T11:13:35;101348.75;;;16.08;34.40
13476;BME280;6810;63.824;20.288;2023-05-29T11:16:43;101341.00;;;16.16;34.55
13476;BME280;6810;63.824;20.288;2023-05-29T11:19:30;101347.97;;;16.31;34.96
13476;BME280;6810;63.824;20.288;2023-05-29T11:22:22;101337.09;;;16.45;33.92
13476;BME280;6810;63.824;20.288;2023-05-29T11:25:10;101332.13;;;16.52;32.89
13476;BME280;6810;63.824;20.288;2023-05-29T11:28:00;101340.81;;;16.55;32.59
13476;BME280;6810;63.824;20.288;2023-05-29T11:30:47;101337.91;;;16.58;32.48
13476;BME280;6810;63.824;20.288;2023-05-29T11:33:48;101334.88;;;16.63;32.96
13476;BME280;6810;63.824;20.288;2023-05-29T11:36:36;101328.19;;;16.68;32.69
13476;BME280;6810;63.824;20.288;2023-05-29T11:39:24;101314.22;;;16.63;31.66
13476;BME280;6810;63.824;20.288;2023-05-29T11:42:11;101335.56;;;16.54;31.43
13476;BME280;6810;63.824;20.288;2023-05-29T11:48:02;101333.84;;;16.53;33.07
13476;BME280;6810;63.824;20.288;2023-05-29T11:50:49;101324.06;;;16.52;32.92
13476;BME280;6810;63.824;20.288;2023-05-29T11:53:40;101324.69;;;16.43;32.63
13476;BME280;6810;63.824;20.288;2023-05-29T11:56:28;101329.03;;;16.33;33.06
13476;BME280;6810;63.824;20.288;2023-05-29T11:59:17;101334.19;;;16.23;32.84
13476;BME280;6810;63.824;20.288;2023-05-29T12:02:04;101331.31;;;16.14;33.44
13476;BME280;6810;63.824;20.288;2023-05-29T12:05:05;101329.69;;;15.99;33.68
13476;BME280;6810;63.824;20.288;2023-05-29T12:07:53;101335.94;;;15.87;33.26
13476;BME280;6810;63.824;20.288;2023-05-29T12:10:48;101337.25;;;15.81;34.03
13476;BME280;6810;63.824;20.288;2023-05-29T12:13:36;101322.94;;;15.81;33.99
13476;BME280;6810;63.824;20.288;2023-05-29T12:16:23;101322.94;;;15.93;33.92
13476;BME280;6810;63.824;20.288;2023-05-29T12:19:12;101331.44;;;15.87;33.55
13476;BME280;6810;63.824;20.288;2023-05-29T12:21:59;101323.81;;;15.81;33.73
13476;BME280;6810;63.824;20.288;2023-05-29T12:24:47;101331.53;;;15.73;33.89
13476;BME280;6810;63.824;20.288;2023-05-29T12:27:34;101331.19;;;15.65;34.02
13476;BME280;6810;63.824;20.288;2023-05-29T12:30:22;101320.03;;;15.58;34.12
13476;BME280;6810;63.824;20.288;2023-05-29T12:33:09;101318.63;;;15.53;34.64
13476;BME280;6810;63.824;20.288;2023-05-29T12:36:12;101318.84;;;15.50;34.85
13476;BME280;6810;63.824;20.288;2023-05-29T12:38:59;101311.75;;;15.49;34.33
13476;BME280;6810;63.824;20.288;2023-05-29T12:41:46;101314.88;;;15.55;34.80
13476;BME280;6810;63.824;20.288;2023-05-29T12:44:33;101312.94;;;15.57;34.89
13476;BME280;6810;63.824;20.288;2023-05-29T12:47:23;101313.69;;;15.59;34.97
13476;BME280;6810;63.824;20.288;2023-05-29T12:50:30;101297.69;;;15.58;34.86
13476;BME280;6810;63.824;20.288;2023-05-29T12:53:17;101281.44;;;15.59;34.69
13476;BME280;6810;63.824;20.288;2023-05-29T12:56:04;101301.75;;;15.76;34.43
13476;BME280;6810;63.824;20.288;2023-05-29T12:58:51;101311.34;;;15.80;34.43
13476;BME280;6810;63.824;20.288;2023-05-29T13:01:39;101286.59;;;15.75;34.30
13476;BME280;6810;63.824;20.288;2023-05-29T13:04:26;101309.28;;;15.84;34.46
13476;BME280;6810;63.824;20.288;2023-05-29T13:07:14;101297.69;;;15.83;34.63
13476;BME280;6810;63.824;20.288;2023-05-29T13:10:01;101301.00;;;15.87;35.09
13476;BME280;6810;63.824;20.288;2023-05-29T13:12:52;101297.97;;;15.91;34.85
13476;BME280;6810;63.824;20.288;2023-05-29T13:15:39;101296.16;;;15.92;34.22
13476;BME280;6810;63.824;20.288;2023-05-29T13:18:26;101286.38;;;15.91;34.58
13476;BME280;6810;63.824;20.288;2023-05-29T13:21:13;101290.03;;;15.90;34.88
13476;BME280;6810;63.824;20.288;2023-05-29T13:24:01;101292.81;;;15.88;34.89
13476;BME280;6810;63.824;20.288;2023-05-29T13:26:48;101284.63;;;15.90;34.58
13476;BME280;6810;63.824;20.288;2023-05-29T13:29:35;101259.19;;;15.70;34.79
13476;BME280;6810;63.824;20.288;2023-05-29T13:32:22;101282.81;;;15.90;34.88
13476;BME280;6810;63.824;20.288;2023-05-29T13:35:10;101272.94;;;15.91;34.61
13476;BME280;6810;63.824;20.288;2023-05-29T13:37:57;101297.53;;;15.97;34.74
13476;BME280;6810;63.824;20.288;2023-05-29T13:40:44;101290.03;;;15.90;34.58
13476;BME280;6810;63.824;20.288;2023-05-29T13:43:32;101298.53;;;15.84;34.95
13476;BME280;6810;63.824;20.288;2023-05-29T13:46:19;101291.75;;;15.78;35.33
13476;BME280;6810;63.824;20.288;2023-05-29T13:49:06;101281.44;;;15.72;35.01
13476;BME280;6810;63.824;20.288;2023-05-29T13:51:54;101292.75;;;15.77;35.23
13476;BME280;6810;63.824;20.288;2023-05-29T13:54:41;101291.09;;;15.75;35.14
13476;BME280;6810;63.824;20.288;2023-05-29T13:57:28;101293.91;;;15.73;35.44
13476;BME280;6810;63.824;20.288;2023-05-29T14:00:15;101287.03;;;15.69;35.77
13476;BME280;6810;63.824;20.288;2023-05-29T14:03:03;101295.22;;;15.68;35.67
13476;BME280;6810;63.824;20.288;2023-05-29T14:05:50;101291.88;;;15.64;35.80
13476;BME280;6810;63.824;20.288;2023-05-29T14:08:37;101290.88;;;15.65;36.26
13476;BME280;6810;63.824;20.288;2023-05-29T14:11:24;101295.44;;;15.65;35.72
13476;BME280;6810;63.824;20.288;2023-05-29T14:14:12;101299.16;;;15.62;36.11
13476;BME280;6810;63.824;20.288;2023-05-29T14:16:59;101290.91;;;15.52;36.00
13476;BME280;6810;63.824;20.288;2023-05-29T14:19:46;101300.69;;;15.53;36.56
13476;BME280;6810;63.824;20.288;2023-05-29T14:22:34;101299.91;;;15.51;36.38
13476;BME280;6810;63.824;20.288;2023-05-29T14:25:21;101293.03;;;15.47;36.10
13476;BME280;6810;63.824;20.288;2023-05-29T14:28:09;101258.81;;;15.24;36.51
13476;BME280;6810;63.824;20.288;2023-05-29T14:30:56;101288.09;;;15.41;36.80
13476;BME280;6810;63.824;20.288;2023-05-29T14:33:43;101258.16;;;15.21;36.74
13476;BME280;6810;63.824;20.288;2023-05-29T14:36:30;101290.13;;;15.38;36.99
13476;BME280;6810;63.824;20.288;2023-05-29T14:39:19;101302.75;;;15.36;36.97
13476;BME280;6810;63.824;20.288;2023-05-29T14:42:07;101288.03;;;15.29;36.93
13476;BME280;6810;63.824;20.288;2023-05-29T14:44:54;101281.16;;;15.25;37.12
13476;BME280;6810;63.824;20.288;2023-05-29T14:47:41;101287.81;;;15.19;37.21
13476;BME280;6810;63.824;20.288;2023-05-29T14:50:29;101295.34;;;15.14;37.18
13476;BME280;6810;63.824;20.288;2023-05-29T14:53:16;101295.66;;;15.10;36.97
13476;BME280;6810;63.824;20.288;2023-05-29T14:56:03;101297.00;;;15.03;36.89
13476;BME280;6810;63.824;20.288;2023-05-29T14:58:50;101310.75;;;14.98;37.16
13476;BME280;6810;63.824;20.288;2023-05-29T15:01:38;101297.72;;;14.92;37.43
13476;BME280;6810;63.824;20.288;2023-05-29T15:04:27;101291.91;;;14.86;37.47
13476;BME280;6810;63.824;20.288;2023-05-29T15:07:16;101302.66;;;14.86;37.93